Stations météo

réclame
Mon MeteoGroup
Fehmarnbelt/Grosstonne, Allemagne (10043): Température de l'air & dewpoint: 17.10.2018 01:00:00 - 23.10.2018 01:00:00 (CEST)Fehmarnbelt/Grosstonne, Allemagne (10043): water temperature: 17.10.2018 01:00:00 - 23.10.2018 01:00:00 (CEST)Fehmarnbelt/Grosstonne, Allemagne (10043): reduced air pressure: 17.10.2018 01:00:00 - 23.10.2018 01:00:00 (CEST)
Date & Time tt [°C] td [°C] tw [°C] ppp [hPa]
23.10.2018 01:00:00 - - - -
23.10.2018 00:00:00 11,2 7,4 12,9 1023,2
22.10.2018 23:00:00 11,2 6,4 12,9 1025,0
22.10.2018 22:00:00 10,9 6,5 12,9 1025,6
22.10.2018 21:00:00 11,0 6,4 12,7 1026,2
22.10.2018 20:00:00 11,0 6,0 12,7 1026,6
22.10.2018 19:00:00 11,4 5,4 12,7 1027,1
22.10.2018 18:00:00 11,7 5,0 12,8 1027,4
22.10.2018 17:00:00 11,7 4,2 12,8 1027,6
22.10.2018 16:00:00 12,0 4,9 12,8 1027,8
22.10.2018 15:00:00 12,2 4,7 12,8 1027,5
22.10.2018 14:00:00 11,9 4,9 12,8 1027,7
22.10.2018 13:00:00 11,7 4,7 12,8 1027,5
22.10.2018 12:00:00 11,7 5,0 12,9 1027,5
22.10.2018 11:00:00 11,7 5,5 12,9 1027,2
22.10.2018 10:00:00 11,5 5,7 12,9 1026,7
22.10.2018 09:00:00 11,5 5,9 12,9 1026,0
22.10.2018 08:00:00 11,5 7,4 12,9 1025,0
22.10.2018 07:00:00 12,0 8,5 12,9 1024,1
22.10.2018 06:00:00 12,4 9,0 13,0 1023,4
22.10.2018 05:00:00 12,5 11,9 12,9 1022,9
22.10.2018 04:00:00 12,0 11,5 12,9 1022,5
22.10.2018 03:00:00 12,4 11,2 12,9 1022,6
22.10.2018 02:00:00 13,4 10,5 12,9 1023,1
22.10.2018 01:00:00 13,2 10,9 12,9 1023,2
22.10.2018 00:00:00 13,2 10,5 12,8 1023,6
21.10.2018 23:00:00 13,4 10,9 12,8 1023,8
21.10.2018 22:00:00 13,5 11,0 12,7 1024,1
21.10.2018 21:00:00 13,9 10,7 12,7 1024,4
21.10.2018 20:00:00 13,7 11,0 12,7 1024,4
21.10.2018 19:00:00 13,5 11,7 12,7 1024,6
21.10.2018 18:00:00 13,7 11,7 12,8 1024,7
21.10.2018 17:00:00 13,5 11,9 12,7 1025,0
21.10.2018 16:00:00 13,7 12,0 12,8 1025,4
21.10.2018 15:00:00 13,4 11,9 12,9 1025,9
21.10.2018 14:00:00 13,4 11,4 12,9 1026,3
21.10.2018 13:00:00 13,5 11,2 12,8 1026,9
21.10.2018 12:00:00 13,5 10,5 12,8 1027,4
21.10.2018 11:00:00 14,4 10,7 12,5 1027,5
21.10.2018 10:00:00 12,2 9,9 12,4 1027,5
21.10.2018 09:00:00 11,2 9,5 12,2 1027,4
21.10.2018 08:00:00 11,0 9,7 12,3 1027,3
21.10.2018 07:00:00 11,2 10,0 12,6 1027,4
21.10.2018 06:00:00 11,4 9,9 12,4 1027,8
21.10.2018 05:00:00 11,7 9,5 12,3 1027,8
21.10.2018 04:00:00 11,9 8,5 12,4 1027,6
21.10.2018 03:00:00 12,0 8,5 12,4 1027,9
21.10.2018 02:00:00 11,7 8,5 12,5 1028,1
21.10.2018 01:00:00 11,9 8,5 12,6 1028,1
21.10.2018 00:00:00 12,0 8,4 12,8 1028,1
20.10.2018 23:00:00 12,2 7,9 13,0 1028,0
20.10.2018 22:00:00 12,5 8,2 13,0 1028,0
20.10.2018 21:00:00 12,7 9,0 13,0 1027,9
20.10.2018 20:00:00 13,0 8,5 13,1 1027,7
20.10.2018 19:00:00 13,0 9,0 13,1 1027,4
20.10.2018 18:00:00 13,0 8,4 13,1 1027,1
20.10.2018 17:00:00 13,7 8,9 13,1 1027,2
20.10.2018 16:00:00 14,0 10,0 13,0 1027,0
20.10.2018 15:00:00 14,2 10,0 12,9 1027,3
20.10.2018 14:00:00 13,5 10,0 12,8 1027,1
20.10.2018 13:00:00 12,7 10,2 12,8 1027,1
20.10.2018 12:00:00 12,2 10,0 12,7 1027,0
20.10.2018 11:00:00 11,7 10,0 12,7 1026,5
20.10.2018 10:00:00 11,5 9,5 12,7 1026,4
20.10.2018 09:00:00 11,5 9,2 12,7 1026,1
20.10.2018 08:00:00 11,5 8,9 12,7 1026,1
20.10.2018 07:00:00 11,4 7,7 12,6 1026,1
20.10.2018 06:00:00 11,5 7,2 12,6 1025,8
20.10.2018 05:00:00 11,5 5,5 12,6 1025,5
20.10.2018 04:00:00 11,7 6,0 12,6 1025,8
20.10.2018 03:00:00 11,9 4,2 12,6 1026,1
20.10.2018 02:00:00 12,0 4,0 12,6 1026,0
20.10.2018 01:00:00 12,0 5,2 12,6 1026,0
20.10.2018 00:00:00 11,9 5,5 12,6 1025,9
19.10.2018 23:00:00 11,7 4,9 12,7 1025,9
19.10.2018 22:00:00 11,7 5,2 12,7 1026,1
19.10.2018 21:00:00 11,7 3,7 12,7 1026,0
19.10.2018 20:00:00 11,4 5,9 12,7 1025,8
19.10.2018 19:00:00 11,4 6,0 12,7 1025,5
19.10.2018 18:00:00 11,4 6,2 12,7 1025,3
19.10.2018 17:00:00 12,5 6,2 12,8 1025,2
19.10.2018 16:00:00 12,7 6,4 12,8 1025,5
19.10.2018 15:00:00 11,7 6,0 12,8 1025,9
19.10.2018 14:00:00 11,5 6,2 12,9 1026,3
19.10.2018 13:00:00 12,0 6,2 12,9 1026,4
19.10.2018 12:00:00 11,7 7,4 12,8 1026,5
19.10.2018 11:00:00 11,2 7,4 12,8 1026,6
19.10.2018 10:00:00 10,7 7,0 12,8 1026,2
19.10.2018 09:00:00 10,7 7,7 12,8 1026,1
19.10.2018 08:00:00 10,4 7,2 12,8 1025,7
19.10.2018 07:00:00 10,5 6,5 12,8 1025,4
19.10.2018 06:00:00 10,5 7,0 12,9 1025,3
19.10.2018 05:00:00 10,4 8,0 12,9 1025,5
19.10.2018 04:00:00 10,4 7,5 12,9 1025,5
19.10.2018 03:00:00 10,7 7,5 12,8 1025,5
19.10.2018 02:00:00 11,0 7,2 12,9 1025,7
19.10.2018 01:00:00 11,0 7,0 12,9 1025,8
19.10.2018 00:00:00 11,4 6,7 13,0 1025,8
18.10.2018 23:00:00 11,7 6,5 13,0 1025,7
18.10.2018 22:00:00 12,2 7,2 13,0 1025,5
18.10.2018 21:00:00 12,5 6,5 13,1 1025,1
18.10.2018 20:00:00 12,5 7,0 13,2 1024,9
18.10.2018 19:00:00 12,5 6,4 13,2 1024,5
18.10.2018 18:00:00 12,7 6,4 13,3 1023,9
18.10.2018 17:00:00 13,2 6,4 13,3 1023,5
18.10.2018 16:00:00 13,5 6,5 13,4 1023,4
18.10.2018 15:00:00 13,7 6,4 13,4 1023,0
18.10.2018 14:00:00 13,7 7,2 13,3 1023,0
18.10.2018 13:00:00 13,7 9,2 13,2 1022,9
18.10.2018 12:00:00 13,0 9,7 13,2 1022,7
18.10.2018 11:00:00 12,9 11,5 13,1 1022,3
18.10.2018 10:00:00 13,7 12,0 13,1 1021,7
18.10.2018 09:00:00 13,2 12,2 13,1 1021,3
18.10.2018 08:00:00 13,2 12,0 13,1 1020,6
18.10.2018 07:00:00 13,4 12,7 13,1 1020,1
18.10.2018 06:00:00 13,4 13,0 13,0 1019,8
18.10.2018 05:00:00 13,2 13,0 13,2 1019,8
18.10.2018 04:00:00 12,9 12,9 13,3 1019,6
18.10.2018 03:00:00 12,7 12,7 13,3 1019,6
18.10.2018 02:00:00 13,0 13,0 13,3 1019,6
18.10.2018 01:00:00 13,2 13,0 13,3 1019,5
18.10.2018 00:00:00 13,2 12,7 13,4 1019,5
17.10.2018 23:00:00 13,4 12,5 13,5 1019,5
17.10.2018 22:00:00 13,7 12,7 13,5 1019,4
17.10.2018 21:00:00 14,4 13,2 13,5 1019,2
17.10.2018 20:00:00 14,0 13,0 13,6 1018,9
17.10.2018 19:00:00 14,2 13,0 13,6 1018,8
17.10.2018 18:00:00 14,2 13,2 13,6 1018,6
17.10.2018 17:00:00 14,5 13,2 13,7 1018,6
17.10.2018 16:00:00 14,5 13,4 13,6 1018,7
17.10.2018 15:00:00 14,5 13,2 13,5 1018,8
17.10.2018 14:00:00 14,2 13,0 13,5 1019,1
17.10.2018 13:00:00 14,7 13,5 13,4 1019,1
17.10.2018 12:00:00 16,5 13,9 13,3 1019,5
17.10.2018 11:00:00 15,2 13,2 13,2 1019,6
17.10.2018 10:00:00 14,7 13,5 13,0 1019,3
17.10.2018 09:00:00 13,4 13,0 12,9 1019,3
17.10.2018 08:00:00 12,5 12,5 12,7 1019,2
17.10.2018 07:00:00 12,7 12,7 12,6 1019,0
17.10.2018 06:00:00 12,4 12,4 12,6 1018,9
17.10.2018 05:00:00 12,0 11,7 12,9 1018,8
17.10.2018 04:00:00 13,4 13,2 13,0 1018,8
17.10.2018 03:00:00 13,7 13,7 13,1 1018,9
17.10.2018 02:00:00 13,9 13,7 13,0 1019,0
17.10.2018 01:00:00 14,0 13,7 13,0 1019,1

tt = Température de l'air
td = dewpoint
tw = water temperature
ppp = reduced air pressure

stations d'obs. à proximité